sensor_id;sensor_type;location;lat;lon;timestamp;temperature;humidity
52058;DHT22;38063;53.210;6.504;2023-05-29T00:00:14;8.70;99.90
52058;DHT22;38063;53.210;6.504;2023-05-29T00:02:44;8.70;99.90
52058;DHT22;38063;53.210;6.504;2023-05-29T00:05:13;8.70;99.90
52058;DHT22;38063;53.210;6.504;2023-05-29T00:07:40;8.70;99.90
52058;DHT22;38063;53.210;6.504;2023-05-29T00:10:07;8.60;99.90
52058;DHT22;38063;53.210;6.504;2023-05-29T00:12:34;8.60;99.90
52058;DHT22;38063;53.210;6.504;2023-05-29T00:14:59;8.60;99.90
52058;DHT22;38063;53.210;6.504;2023-05-29T00:17:25;8.60;99.90
52058;DHT22;38063;53.210;6.504;2023-05-29T00:19:51;8.60;99.90
52058;DHT22;38063;53.210;6.504;2023-05-29T00:22:17;8.60;99.90
52058;DHT22;38063;53.210;6.504;2023-05-29T00:24:43;8.60;99.90
52058;DHT22;38063;53.210;6.504;2023-05-29T00:27:09;8.60;99.90
52058;DHT22;38063;53.210;6.504;2023-05-29T00:29:38;8.60;99.90
52058;DHT22;38063;53.210;6.504;2023-05-29T00:32:04;8.60;99.90
52058;DHT22;38063;53.210;6.504;2023-05-29T00:34:31;8.50;99.90
52058;DHT22;38063;53.210;6.504;2023-05-29T00:36:56;8.50;99.90
52058;DHT22;38063;53.210;6.504;2023-05-29T00:39:22;8.50;99.90
52058;DHT22;38063;53.210;6.504;2023-05-29T00:41:48;8.50;99.90
52058;DHT22;38063;53.210;6.504;2023-05-29T00:44:18;8.50;99.90
52058;DHT22;38063;53.210;6.504;2023-05-29T00:46:44;8.50;99.90
52058;DHT22;38063;53.210;6.504;2023-05-29T00:49:10;8.50;99.90
52058;DHT22;38063;53.210;6.504;2023-05-29T00:51:37;8.60;99.90
52058;DHT22;38063;53.210;6.504;2023-05-29T00:54:07;8.50;99.90
52058;DHT22;38063;53.210;6.504;2023-05-29T00:56:34;8.60;99.90
52058;DHT22;38063;53.210;6.504;2023-05-29T00:59:01;8.50;99.90
52058;DHT22;38063;53.210;6.504;2023-05-29T01:01:27;8.50;99.90
52058;DHT22;38063;53.210;6.504;2023-05-29T01:03:55;8.50;99.90
52058;DHT22;38063;53.210;6.504;2023-05-29T01:06:23;8.50;99.90
52058;DHT22;38063;53.210;6.504;2023-05-29T01:08:48;8.60;99.90
52058;DHT22;38063;53.210;6.504;2023-05-29T01:13:49;8.50;99.90
52058;DHT22;38063;53.210;6.504;2023-05-29T01:16:31;8.50;99.90
52058;DHT22;38063;53.210;6.504;2023-05-29T01:24:46;8.50;99.90
52058;DHT22;38063;53.210;6.504;2023-05-29T01:27:15;8.60;99.90
52058;DHT22;38063;53.210;6.504;2023-05-29T01:29:43;8.50;99.90
52058;DHT22;38063;53.210;6.504;2023-05-29T01:32:11;8.40;99.90
52058;DHT22;38063;53.210;6.504;2023-05-29T01:34:37;8.50;99.90
52058;DHT22;38063;53.210;6.504;2023-05-29T01:37:03;8.50;99.90
52058;DHT22;38063;53.210;6.504;2023-05-29T01:39:29;8.50;99.90
52058;DHT22;38063;53.210;6.504;2023-05-29T01:41:55;8.50;99.90
52058;DHT22;38063;53.210;6.504;2023-05-29T01:44:22;8.60;99.90
52058;DHT22;38063;53.210;6.504;2023-05-29T01:46:49;8.60;99.90
52058;DHT22;38063;53.210;6.504;2023-05-29T01:49:15;8.60;99.90
52058;DHT22;38063;53.210;6.504;2023-05-29T01:51:42;8.70;99.90
52058;DHT22;38063;53.210;6.504;2023-05-29T01:54:08;8.70;99.90
52058;DHT22;38063;53.210;6.504;2023-05-29T01:56:34;8.70;99.90
52058;DHT22;38063;53.210;6.504;2023-05-29T01:59:02;9.00;99.90
52058;DHT22;38063;53.210;6.504;2023-05-29T02:01:28;8.70;99.90
52058;DHT22;38063;53.210;6.504;2023-05-29T02:03:54;8.70;99.90
52058;DHT22;38063;53.210;6.504;2023-05-29T02:06:20;8.70;99.90
52058;DHT22;38063;53.210;6.504;2023-05-29T02:08:46;8.70;99.90
52058;DHT22;38063;53.210;6.504;2023-05-29T02:11:12;8.70;99.90
52058;DHT22;38063;53.210;6.504;2023-05-29T02:13:38;8.70;99.90
52058;DHT22;38063;53.210;6.504;2023-05-29T02:16:04;8.80;99.90
52058;DHT22;38063;53.210;6.504;2023-05-29T02:18:30;8.80;99.90
52058;DHT22;38063;53.210;6.504;2023-05-29T02:20:56;8.90;99.90
52058;DHT22;38063;53.210;6.504;2023-05-29T02:23:22;8.90;99.90
52058;DHT22;38063;53.210;6.504;2023-05-29T02:25:48;8.90;99.90
52058;DHT22;38063;53.210;6.504;2023-05-29T02:28:13;9.00;99.90
52058;DHT22;38063;53.210;6.504;2023-05-29T02:30:39;8.90;99.90
52058;DHT22;38063;53.210;6.504;2023-05-29T02:33:05;8.90;99.90
52058;DHT22;38063;53.210;6.504;2023-05-29T02:35:32;8.90;99.90
52058;DHT22;38063;53.210;6.504;2023-05-29T02:37:57;9.00;99.90
52058;DHT22;38063;53.210;6.504;2023-05-29T02:40:23;8.90;99.90
52058;DHT22;38063;53.210;6.504;2023-05-29T02:42:49;8.90;99.90
52058;DHT22;38063;53.210;6.504;2023-05-29T02:45:16;8.90;99.90
52058;DHT22;38063;53.210;6.504;2023-05-29T02:47:42;8.90;99.90
52058;DHT22;38063;53.210;6.504;2023-05-29T02:50:08;8.90;99.90
52058;DHT22;38063;53.210;6.504;2023-05-29T02:52:34;8.90;99.90
52058;DHT22;38063;53.210;6.504;2023-05-29T02:55:02;8.90;99.90
52058;DHT22;38063;53.210;6.504;2023-05-29T02:57:29;8.90;99.90
52058;DHT22;38063;53.210;6.504;2023-05-29T02:59:55;8.90;99.90
52058;DHT22;38063;53.210;6.504;2023-05-29T03:02:20;9.00;99.90
52058;DHT22;38063;53.210;6.504;2023-05-29T03:04:46;9.00;99.90
52058;DHT22;38063;53.210;6.504;2023-05-29T03:07:15;9.10;99.90
52058;DHT22;38063;53.210;6.504;2023-05-29T03:09:41;9.10;99.90
52058;DHT22;38063;53.210;6.504;2023-05-29T03:12:06;9.10;99.90
52058;DHT22;38063;53.210;6.504;2023-05-29T03:14:32;9.10;99.90
52058;DHT22;38063;53.210;6.504;2023-05-29T03:17:03;9.10;99.90
52058;DHT22;38063;53.210;6.504;2023-05-29T03:19:29;9.10;99.90
52058;DHT22;38063;53.210;6.504;2023-05-29T03:21:55;9.30;99.90
52058;DHT22;38063;53.210;6.504;2023-05-29T03:24:20;9.20;99.90
52058;DHT22;38063;53.210;6.504;2023-05-29T03:26:46;9.20;99.90
52058;DHT22;38063;53.210;6.504;2023-05-29T03:29:12;9.10;99.90
52058;DHT22;38063;53.210;6.504;2023-05-29T03:31:37;9.20;99.90
52058;DHT22;38063;53.210;6.504;2023-05-29T03:34:06;9.20;99.90
52058;DHT22;38063;53.210;6.504;2023-05-29T03:36:31;9.20;99.90
52058;DHT22;38063;53.210;6.504;2023-05-29T03:38:57;9.20;99.90
52058;DHT22;38063;53.210;6.504;2023-05-29T03:41:23;9.20;99.90
52058;DHT22;38063;53.210;6.504;2023-05-29T03:43:48;9.20;99.90
52058;DHT22;38063;53.210;6.504;2023-05-29T03:46:14;9.20;99.90
52058;DHT22;38063;53.210;6.504;2023-05-29T03:48:39;9.20;99.90
52058;DHT22;38063;53.210;6.504;2023-05-29T03:51:05;9.20;99.90
52058;DHT22;38063;53.210;6.504;2023-05-29T03:53:31;9.50;99.90
52058;DHT22;38063;53.210;6.504;2023-05-29T03:55:57;9.10;99.90
52058;DHT22;38063;53.210;6.504;2023-05-29T03:58:23;9.30;99.90
52058;DHT22;38063;53.210;6.504;2023-05-29T04:00:48;9.40;99.90
52058;DHT22;38063;53.210;6.504;2023-05-29T04:03:14;9.20;99.90
52058;DHT22;38063;53.210;6.504;2023-05-29T04:05:40;9.30;99.90
52058;DHT22;38063;53.210;6.504;2023-05-29T04:08:06;9.30;99.90
52058;DHT22;38063;53.210;6.504;2023-05-29T04:10:34;9.30;99.90
52058;DHT22;38063;53.210;6.504;2023-05-29T04:13:03;9.30;99.90
52058;DHT22;38063;53.210;6.504;2023-05-29T04:15:29;9.70;99.90
52058;DHT22;38063;53.210;6.504;2023-05-29T04:17:55;9.40;99.90
52058;DHT22;38063;53.210;6.504;2023-05-29T04:20:21;9.40;99.90
52058;DHT22;38063;53.210;6.504;2023-05-29T04:22:47;9.40;99.90
52058;DHT22;38063;53.210;6.504;2023-05-29T04:25:12;9.80;99.90
52058;DHT22;38063;53.210;6.504;2023-05-29T04:27:38;9.40;99.90
52058;DHT22;38063;53.210;6.504;2023-05-29T04:30:07;9.40;99.90
52058;DHT22;38063;53.210;6.504;2023-05-29T04:32:33;9.40;99.90
52058;DHT22;38063;53.210;6.504;2023-05-29T04:34:59;9.40;99.90
52058;DHT22;38063;53.210;6.504;2023-05-29T04:37:31;9.40;99.90
52058;DHT22;38063;53.210;6.504;2023-05-29T04:40:04;9.40;99.90
52058;DHT22;38063;53.210;6.504;2023-05-29T04:42:34;9.40;99.90
52058;DHT22;38063;53.210;6.504;2023-05-29T04:45:00;9.40;99.90
52058;DHT22;38063;53.210;6.504;2023-05-29T04:47:26;9.40;99.90
52058;DHT22;38063;53.210;6.504;2023-05-29T04:49:53;9.50;99.90
52058;DHT22;38063;53.210;6.504;2023-05-29T04:52:19;9.50;99.90
52058;DHT22;38063;53.210;6.504;2023-05-29T04:54:47;9.50;99.90
52058;DHT22;38063;53.210;6.504;2023-05-29T04:57:12;9.60;99.90
52058;DHT22;38063;53.210;6.504;2023-05-29T04:59:38;9.60;99.90
52058;DHT22;38063;53.210;6.504;2023-05-29T05:02:04;9.70;99.90
52058;DHT22;38063;53.210;6.504;2023-05-29T05:04:30;9.80;99.90
52058;DHT22;38063;53.210;6.504;2023-05-29T05:06:55;9.80;99.90
52058;DHT22;38063;53.210;6.504;2023-05-29T05:09:21;9.90;99.90
52058;DHT22;38063;53.210;6.504;2023-05-29T05:11:46;10.00;99.90
52058;DHT22;38063;53.210;6.504;2023-05-29T05:14:12;10.00;99.90
52058;DHT22;38063;53.210;6.504;2023-05-29T05:16:38;10.00;99.90
52058;DHT22;38063;53.210;6.504;2023-05-29T05:19:03;10.10;99.90
52058;DHT22;38063;53.210;6.504;2023-05-29T05:21:29;10.10;99.90
52058;DHT22;38063;53.210;6.504;2023-05-29T05:23:57;10.30;99.90
52058;DHT22;38063;53.210;6.504;2023-05-29T05:26:22;10.20;99.90
52058;DHT22;38063;53.210;6.504;2023-05-29T05:28:48;10.20;99.90
52058;DHT22;38063;53.210;6.504;2023-05-29T05:31:13;10.30;99.90
52058;DHT22;38063;53.210;6.504;2023-05-29T05:33:40;10.30;99.90
52058;DHT22;38063;53.210;6.504;2023-05-29T05:36:05;10.40;99.90
52058;DHT22;38063;53.210;6.504;2023-05-29T05:38:32;10.40;99.90
52058;DHT22;38063;53.210;6.504;2023-05-29T05:40:58;10.50;99.90
52058;DHT22;38063;53.210;6.504;2023-05-29T05:43:23;10.50;99.90
52058;DHT22;38063;53.210;6.504;2023-05-29T05:45:51;10.50;99.90
52058;DHT22;38063;53.210;6.504;2023-05-29T05:48:17;10.60;99.90
52058;DHT22;38063;53.210;6.504;2023-05-29T05:50:43;10.60;99.90
52058;DHT22;38063;53.210;6.504;2023-05-29T05:53:08;10.60;99.90
52058;DHT22;38063;53.210;6.504;2023-05-29T05:55:34;10.80;99.90
52058;DHT22;38063;53.210;6.504;2023-05-29T05:57:59;10.70;99.90
52058;DHT22;38063;53.210;6.504;2023-05-29T06:00:25;10.90;99.90
52058;DHT22;38063;53.210;6.504;2023-05-29T06:02:51;10.70;99.90
52058;DHT22;38063;53.210;6.504;2023-05-29T06:05:16;10.80;99.90
52058;DHT22;38063;53.210;6.504;2023-05-29T06:07:42;10.80;99.90
52058;DHT22;38063;53.210;6.504;2023-05-29T06:10:08;10.90;99.90
52058;DHT22;38063;53.210;6.504;2023-05-29T06:12:34;11.00;99.90
52058;DHT22;38063;53.210;6.504;2023-05-29T06:15:03;11.00;99.90
52058;DHT22;38063;53.210;6.504;2023-05-29T06:17:29;11.10;99.90
52058;DHT22;38063;53.210;6.504;2023-05-29T06:19:55;11.20;99.90
52058;DHT22;38063;53.210;6.504;2023-05-29T06:22:21;11.30;99.90
52058;DHT22;38063;53.210;6.504;2023-05-29T06:24:46;11.30;99.90
52058;DHT22;38063;53.210;6.504;2023-05-29T06:27:12;11.40;99.90
52058;DHT22;38063;53.210;6.504;2023-05-29T06:29:38;11.60;99.90
52058;DHT22;38063;53.210;6.504;2023-05-29T06:32:04;11.80;99.90
52058;DHT22;38063;53.210;6.504;2023-05-29T06:34:29;11.90;99.90
52058;DHT22;38063;53.210;6.504;2023-05-29T06:36:55;11.90;99.90
52058;DHT22;38063;53.210;6.504;2023-05-29T06:39:20;11.90;99.90
52058;DHT22;38063;53.210;6.504;2023-05-29T06:41:47;11.80;99.90
52058;DHT22;38063;53.210;6.504;2023-05-29T06:44:13;11.80;99.90
52058;DHT22;38063;53.210;6.504;2023-05-29T06:46:38;11.90;99.90
52058;DHT22;38063;53.210;6.504;2023-05-29T06:49:04;11.80;99.90
52058;DHT22;38063;53.210;6.504;2023-05-29T06:51:29;11.80;99.90
52058;DHT22;38063;53.210;6.504;2023-05-29T06:53:56;11.80;99.90
52058;DHT22;38063;53.210;6.504;2023-05-29T06:56:21;11.80;99.90
52058;DHT22;38063;53.210;6.504;2023-05-29T06:58:47;12.00;99.90
52058;DHT22;38063;53.210;6.504;2023-05-29T07:01:13;12.00;99.90
52058;DHT22;38063;53.210;6.504;2023-05-29T07:03:38;12.10;99.90
52058;DHT22;38063;53.210;6.504;2023-05-29T07:06:04;12.20;99.90
52058;DHT22;38063;53.210;6.504;2023-05-29T07:08:31;12.30;99.90
52058;DHT22;38063;53.210;6.504;2023-05-29T07:10:57;12.30;99.90
52058;DHT22;38063;53.210;6.504;2023-05-29T07:13:25;12.40;99.90
52058;DHT22;38063;53.210;6.504;2023-05-29T07:15:50;12.50;99.90
52058;DHT22;38063;53.210;6.504;2023-05-29T07:18:16;12.50;99.90
52058;DHT22;38063;53.210;6.504;2023-05-29T07:20:42;12.70;99.90
52058;DHT22;38063;53.210;6.504;2023-05-29T07:23:07;12.70;99.90
52058;DHT22;38063;53.210;6.504;2023-05-29T07:25:33;12.80;99.90
52058;DHT22;38063;53.210;6.504;2023-05-29T07:27:59;12.90;99.90
52058;DHT22;38063;53.210;6.504;2023-05-29T07:30:25;12.90;99.90
52058;DHT22;38063;53.210;6.504;2023-05-29T07:32:50;12.90;99.90
52058;DHT22;38063;53.210;6.504;2023-05-29T07:35:16;12.90;99.90
52058;DHT22;38063;53.210;6.504;2023-05-29T07:37:41;12.90;99.90
52058;DHT22;38063;53.210;6.504;2023-05-29T07:40:07;12.80;99.90
52058;DHT22;38063;53.210;6.504;2023-05-29T07:42:33;12.80;99.90
52058;DHT22;38063;53.210;6.504;2023-05-29T07:44:59;12.90;99.90
52058;DHT22;38063;53.210;6.504;2023-05-29T07:47:25;13.00;99.90
52058;DHT22;38063;53.210;6.504;2023-05-29T07:49:51;13.10;99.90
52058;DHT22;38063;53.210;6.504;2023-05-29T07:52:20;13.20;99.90
52058;DHT22;38063;53.210;6.504;2023-05-29T07:54:45;13.40;99.90
52058;DHT22;38063;53.210;6.504;2023-05-29T07:57:11;13.50;99.90
52058;DHT22;38063;53.210;6.504;2023-05-29T07:59:38;13.60;99.90
52058;DHT22;38063;53.210;6.504;2023-05-29T08:02:05;13.60;99.90
52058;DHT22;38063;53.210;6.504;2023-05-29T08:04:31;13.80;99.90
52058;DHT22;38063;53.210;6.504;2023-05-29T08:07:01;13.90;99.90
52058;DHT22;38063;53.210;6.504;2023-05-29T08:09:29;13.90;99.90
52058;DHT22;38063;53.210;6.504;2023-05-29T08:11:55;13.90;99.90
52058;DHT22;38063;53.210;6.504;2023-05-29T08:14:20;14.00;99.90
52058;DHT22;38063;53.210;6.504;2023-05-29T08:16:46;13.90;99.90
52058;DHT22;38063;53.210;6.504;2023-05-29T08:19:12;13.80;99.90
52058;DHT22;38063;53.210;6.504;2023-05-29T08:21:37;13.70;99.90
52058;DHT22;38063;53.210;6.504;2023-05-29T08:24:03;13.60;99.90
52058;DHT22;38063;53.210;6.504;2023-05-29T08:26:32;13.60;99.90
52058;DHT22;38063;53.210;6.504;2023-05-29T08:28:58;13.70;99.90
52058;DHT22;38063;53.210;6.504;2023-05-29T08:31:23;13.80;99.90
52058;DHT22;38063;53.210;6.504;2023-05-29T08:33:53;13.90;99.90
52058;DHT22;38063;53.210;6.504;2023-05-29T08:36:19;13.90;99.90
52058;DHT22;38063;53.210;6.504;2023-05-29T08:38:50;13.80;99.90
52058;DHT22;38063;53.210;6.504;2023-05-29T08:41:59;13.80;99.90
52058;DHT22;38063;53.210;6.504;2023-05-29T08:44:23;13.80;99.90
52058;DHT22;38063;53.210;6.504;2023-05-29T08:46:55;13.90;99.90
52058;DHT22;38063;53.210;6.504;2023-05-29T08:49:21;13.80;99.90
52058;DHT22;38063;53.210;6.504;2023-05-29T08:51:57;13.80;99.90
52058;DHT22;38063;53.210;6.504;2023-05-29T08:54:26;13.70;99.90
52058;DHT22;38063;53.210;6.504;2023-05-29T08:56:52;13.60;99.90
52058;DHT22;38063;53.210;6.504;2023-05-29T08:59:17;13.50;99.90
52058;DHT22;38063;53.210;6.504;2023-05-29T09:01:44;13.40;99.90
52058;DHT22;38063;53.210;6.504;2023-05-29T09:04:10;13.40;99.90
52058;DHT22;38063;53.210;6.504;2023-05-29T09:06:36;13.40;99.90
52058;DHT22;38063;53.210;6.504;2023-05-29T09:09:02;13.50;99.90
52058;DHT22;38063;53.210;6.504;2023-05-29T09:11:31;13.50;99.90
52058;DHT22;38063;53.210;6.504;2023-05-29T09:13:57;13.60;99.90
52058;DHT22;38063;53.210;6.504;2023-05-29T09:16:25;13.60;99.90
52058;DHT22;38063;53.210;6.504;2023-05-29T09:18:50;13.60;99.90
52058;DHT22;38063;53.210;6.504;2023-05-29T09:21:27;13.70;99.90
52058;DHT22;38063;53.210;6.504;2023-05-29T09:23:54;13.80;99.90
52058;DHT22;38063;53.210;6.504;2023-05-29T09:26:21;13.90;99.90
52058;DHT22;38063;53.210;6.504;2023-05-29T09:28:50;14.10;99.90
52058;DHT22;38063;53.210;6.504;2023-05-29T09:31:16;14.30;99.90
52058;DHT22;38063;53.210;6.504;2023-05-29T09:33:48;14.30;99.90
52058;DHT22;38063;53.210;6.504;2023-05-29T09:36:21;14.40;99.90
52058;DHT22;38063;53.210;6.504;2023-05-29T09:38:51;14.60;99.90
52058;DHT22;38063;53.210;6.504;2023-05-29T09:41:23;14.60;99.90
52058;DHT22;38063;53.210;6.504;2023-05-29T09:43:52;14.60;99.90
52058;DHT22;38063;53.210;6.504;2023-05-29T09:46:21;14.70;99.90
52058;DHT22;38063;53.210;6.504;2023-05-29T09:48:47;14.80;99.90
52058;DHT22;38063;53.210;6.504;2023-05-29T09:51:23;14.90;99.90
52058;DHT22;38063;53.210;6.504;2023-05-29T09:53:49;14.90;99.90
52058;DHT22;38063;53.210;6.504;2023-05-29T09:56:23;14.90;99.90
52058;DHT22;38063;53.210;6.504;2023-05-29T09:58:51;15.00;99.90
52058;DHT22;38063;53.210;6.504;2023-05-29T10:01:17;15.00;99.90
52058;DHT22;38063;53.210;6.504;2023-05-29T10:03:43;15.10;99.90
52058;DHT22;38063;53.210;6.504;2023-05-29T10:06:11;15.10;99.90
52058;DHT22;38063;53.210;6.504;2023-05-29T10:08:45;15.30;99.90
52058;DHT22;38063;53.210;6.504;2023-05-29T10:11:14;15.50;99.90
52058;DHT22;38063;53.210;6.504;2023-05-29T10:13:45;15.60;99.90
52058;DHT22;38063;53.210;6.504;2023-05-29T10:16:15;15.50;99.90
52058;DHT22;38063;53.210;6.504;2023-05-29T10:18:49;15.60;99.90
52058;DHT22;38063;53.210;6.504;2023-05-29T10:21:16;15.40;99.90
52058;DHT22;38063;53.210;6.504;2023-05-29T10:23:47;15.50;99.90
52058;DHT22;38063;53.210;6.504;2023-05-29T10:26:20;15.40;99.90
52058;DHT22;38063;53.210;6.504;2023-05-29T10:32:05;15.50;99.90
52058;DHT22;38063;53.210;6.504;2023-05-29T10:34:36;15.50;99.90
52058;DHT22;38063;53.210;6.504;2023-05-29T10:37:50;15.50;99.90
52058;DHT22;38063;53.210;6.504;2023-05-29T10:40:23;15.40;99.90
52058;DHT22;38063;53.210;6.504;2023-05-29T10:42:50;15.50;99.90
52058;DHT22;38063;53.210;6.504;2023-05-29T10:50:42;16.00;99.90
52058;DHT22;38063;53.210;6.504;2023-05-29T10:53:09;16.10;99.90
52058;DHT22;38063;53.210;6.504;2023-05-29T10:55:36;16.20;99.90
52058;DHT22;38063;53.210;6.504;2023-05-29T10:58:06;16.10;99.90
52058;DHT22;38063;53.210;6.504;2023-05-29T11:00:32;15.90;99.90
52058;DHT22;38063;53.210;6.504;2023-05-29T11:03:03;15.80;99.90
52058;DHT22;38063;53.210;6.504;2023-05-29T11:05:29;15.80;99.90
52058;DHT22;38063;53.210;6.504;2023-05-29T11:07:59;15.90;99.90
52058;DHT22;38063;53.210;6.504;2023-05-29T11:13:34;15.80;99.90
52058;DHT22;38063;53.210;6.504;2023-05-29T11:18:57;15.80;99.90
52058;DHT22;38063;53.210;6.504;2023-05-29T11:24:07;16.00;99.90
52058;DHT22;38063;53.210;6.504;2023-05-29T11:26:34;15.90;99.90
52058;DHT22;38063;53.210;6.504;2023-05-29T11:29:06;15.90;99.90
52058;DHT22;38063;53.210;6.504;2023-05-29T11:31:37;15.90;99.90
52058;DHT22;38063;53.210;6.504;2023-05-29T11:34:04;16.00;99.90
52058;DHT22;38063;53.210;6.504;2023-05-29T11:36:33;15.90;99.90
52058;DHT22;38063;53.210;6.504;2023-05-29T11:38:59;16.00;99.90
52058;DHT22;38063;53.210;6.504;2023-05-29T11:41:26;16.10;99.90
52058;DHT22;38063;53.210;6.504;2023-05-29T11:44:02;16.00;99.90
52058;DHT22;38063;53.210;6.504;2023-05-29T11:46:31;16.10;99.90
52058;DHT22;38063;53.210;6.504;2023-05-29T11:48:58;16.10;99.90
52058;DHT22;38063;53.210;6.504;2023-05-29T11:51:24;16.00;99.90
52058;DHT22;38063;53.210;6.504;2023-05-29T11:53:50;16.20;99.90
52058;DHT22;38063;53.210;6.504;2023-05-29T11:56:18;16.40;99.90
52058;DHT22;38063;53.210;6.504;2023-05-29T11:58:44;16.40;99.90
52058;DHT22;38063;53.210;6.504;2023-05-29T12:01:10;16.30;99.90
52058;DHT22;38063;53.210;6.504;2023-05-29T12:03:43;16.20;99.90
52058;DHT22;38063;53.210;6.504;2023-05-29T12:06:09;16.10;99.90
52058;DHT22;38063;53.210;6.504;2023-05-29T12:08:39;16.10;99.90
52058;DHT22;38063;53.210;6.504;2023-05-29T12:11:05;16.10;99.90
52058;DHT22;38063;53.210;6.504;2023-05-29T12:13:31;16.30;99.90
52058;DHT22;38063;53.210;6.504;2023-05-29T12:15:59;16.30;99.90
52058;DHT22;38063;53.210;6.504;2023-05-29T12:18:26;16.30;99.90
52058;DHT22;38063;53.210;6.504;2023-05-29T12:21:03;16.30;99.90
52058;DHT22;38063;53.210;6.504;2023-05-29T12:23:29;16.20;99.90
52058;DHT22;38063;53.210;6.504;2023-05-29T12:25:56;16.10;99.90
52058;DHT22;38063;53.210;6.504;2023-05-29T12:28:22;16.10;99.90
52058;DHT22;38063;53.210;6.504;2023-05-29T12:30:49;16.10;99.90
52058;DHT22;38063;53.210;6.504;2023-05-29T12:33:28;16.20;99.90
52058;DHT22;38063;53.210;6.504;2023-05-29T12:35:54;16.30;99.90
52058;DHT22;38063;53.210;6.504;2023-05-29T12:38:22;16.30;99.90
52058;DHT22;38063;53.210;6.504;2023-05-29T12:40:48;16.50;99.90
52058;DHT22;38063;53.210;6.504;2023-05-29T12:43:16;16.40;99.90
52058;DHT22;38063;53.210;6.504;2023-05-29T12:45:42;16.20;99.90
52058;DHT22;38063;53.210;6.504;2023-05-29T12:48:08;16.00;99.90
52058;DHT22;38063;53.210;6.504;2023-05-29T12:50:39;16.00;99.90
52058;DHT22;38063;53.210;6.504;2023-05-29T12:53:10;16.00;99.90
52058;DHT22;38063;53.210;6.504;2023-05-29T12:55:38;16.00;99.90
52058;DHT22;38063;53.210;6.504;2023-05-29T12:58:05;16.20;99.90
52058;DHT22;38063;53.210;6.504;2023-05-29T13:00:33;16.40;99.90
52058;DHT22;38063;53.210;6.504;2023-05-29T13:02:58;16.50;99.90
52058;DHT22;38063;53.210;6.504;2023-05-29T13:05:24;16.70;99.90
52058;DHT22;38063;53.210;6.504;2023-05-29T13:07:51;16.80;99.90
52058;DHT22;38063;53.210;6.504;2023-05-29T13:10:20;16.90;99.90
52058;DHT22;38063;53.210;6.504;2023-05-29T13:12:48;16.80;99.90
52058;DHT22;38063;53.210;6.504;2023-05-29T13:15:15;16.80;99.90
52058;DHT22;38063;53.210;6.504;2023-05-29T13:17:41;16.80;99.90
52058;DHT22;38063;53.210;6.504;2023-05-29T13:20:11;16.60;99.40
52058;DHT22;38063;53.210;6.504;2023-05-29T13:22:41;16.70;99.90
52058;DHT22;38063;53.210;6.504;2023-05-29T13:25:10;16.70;99.90
52058;DHT22;38063;53.210;6.504;2023-05-29T13:27:37;16.50;99.90
52058;DHT22;38063;53.210;6.504;2023-05-29T13:30:04;16.30;99.70
52058;DHT22;38063;53.210;6.504;2023-05-29T13:32:30;16.30;99.70
52058;DHT22;38063;53.210;6.504;2023-05-29T13:34:56;16.30;99.20
52058;DHT22;38063;53.210;6.504;2023-05-29T13:37:22;16.20;99.50
52058;DHT22;38063;53.210;6.504;2023-05-29T13:39:48;16.20;99.60
52058;DHT22;38063;53.210;6.504;2023-05-29T13:42:13;16.20;99.90
52058;DHT22;38063;53.210;6.504;2023-05-29T13:44:39;16.30;99.90
52058;DHT22;38063;53.210;6.504;2023-05-29T13:47:06;16.40;99.60
52058;DHT22;38063;53.210;6.504;2023-05-29T13:49:33;16.40;99.60
52058;DHT22;38063;53.210;6.504;2023-05-29T13:51:59;16.40;99.40
52058;DHT22;38063;53.210;6.504;2023-05-29T13:54:24;16.40;99.40
52058;DHT22;38063;53.210;6.504;2023-05-29T13:56:50;16.30;99.10
52058;DHT22;38063;53.210;6.504;2023-05-29T13:59:16;16.30;98.70
52058;DHT22;38063;53.210;6.504;2023-05-29T14:01:41;16.20;98.10
52058;DHT22;38063;53.210;6.504;2023-05-29T14:04:07;16.20;98.00
52058;DHT22;38063;53.210;6.504;2023-05-29T14:06:33;16.10;97.50
52058;DHT22;38063;53.210;6.504;2023-05-29T14:08:59;16.10;97.90
52058;DHT22;38063;53.210;6.504;2023-05-29T14:11:26;16.00;98.10
52058;DHT22;38063;53.210;6.504;2023-05-29T14:13:52;16.00;98.20
52058;DHT22;38063;53.210;6.504;2023-05-29T14:16:18;16.00;98.00
52058;DHT22;38063;53.210;6.504;2023-05-29T14:18:43;16.00;97.30
52058;DHT22;38063;53.210;6.504;2023-05-29T14:21:09;16.00;97.70
52058;DHT22;38063;53.210;6.504;2023-05-29T14:23:36;16.00;97.60
52058;DHT22;38063;53.210;6.504;2023-05-29T14:26:02;16.00;97.00
52058;DHT22;38063;53.210;6.504;2023-05-29T14:28:27;15.90;97.00
52058;DHT22;38063;53.210;6.504;2023-05-29T14:30:53;16.00;97.20
52058;DHT22;38063;53.210;6.504;2023-05-29T14:33:19;16.00;97.10
52058;DHT22;38063;53.210;6.504;2023-05-29T14:35:44;16.00;97.40
52058;DHT22;38063;53.210;6.504;2023-05-29T14:38:10;16.00;97.30
52058;DHT22;38063;53.210;6.504;2023-05-29T14:40:36;16.00;96.20
52058;DHT22;38063;53.210;6.504;2023-05-29T14:43:02;15.90;95.50
52058;DHT22;38063;53.210;6.504;2023-05-29T14:45:28;15.80;95.70
52058;DHT22;38063;53.210;6.504;2023-05-29T14:47:54;16.00;95.70
52058;DHT22;38063;53.210;6.504;2023-05-29T14:50:20;16.00;95.70
52058;DHT22;38063;53.210;6.504;2023-05-29T14:52:45;15.90;95.20
52058;DHT22;38063;53.210;6.504;2023-05-29T14:55:13;15.90;95.20
52058;DHT22;38063;53.210;6.504;2023-05-29T14:57:40;15.80;95.20
52058;DHT22;38063;53.210;6.504;2023-05-29T15:00:07;15.60;95.60
52058;DHT22;38063;53.210;6.504;2023-05-29T15:02:33;15.60;95.80
52058;DHT22;38063;53.210;6.504;2023-05-29T15:04:59;15.70;96.10
52058;DHT22;38063;53.210;6.504;2023-05-29T15:07:25;15.80;96.00
52058;DHT22;38063;53.210;6.504;2023-05-29T15:09:51;15.80;96.30
52058;DHT22;38063;53.210;6.504;2023-05-29T15:12:17;15.70;96.80
52058;DHT22;38063;53.210;6.504;2023-05-29T15:14:43;15.80;97.00
52058;DHT22;38063;53.210;6.504;2023-05-29T15:17:08;15.80;97.50
52058;DHT22;38063;53.210;6.504;2023-05-29T15:19:34;15.70;96.80
52058;DHT22;38063;53.210;6.504;2023-05-29T15:22:00;15.60;96.70
52058;DHT22;38063;53.210;6.504;2023-05-29T15:24:25;15.70;97.50
52058;DHT22;38063;53.210;6.504;2023-05-29T15:26:51;15.70;98.00
52058;DHT22;38063;53.210;6.504;2023-05-29T15:29:17;15.60;97.90
52058;DHT22;38063;53.210;6.504;2023-05-29T15:31:43;15.40;97.80
52058;DHT22;38063;53.210;6.504;2023-05-29T15:34:08;15.50;98.10
52058;DHT22;38063;53.210;6.504;2023-05-29T15:36:34;15.30;98.30
52058;DHT22;38063;53.210;6.504;2023-05-29T15:39:02;15.40;98.40
52058;DHT22;38063;53.210;6.504;2023-05-29T15:41:28;15.40;98.50
52058;DHT22;38063;53.210;6.504;2023-05-29T15:43:55;15.40;98.20
52058;DHT22;38063;53.210;6.504;2023-05-29T15:46:21;15.30;98.20
52058;DHT22;38063;53.210;6.504;2023-05-29T15:48:46;15.20;98.20
52058;DHT22;38063;53.210;6.504;2023-05-29T15:51:12;15.10;98.20
52058;DHT22;38063;53.210;6.504;2023-05-29T15:53:38;14.90;98.10
52058;DHT22;38063;53.210;6.504;2023-05-29T15:56:04;14.80;98.10
52058;DHT22;38063;53.210;6.504;2023-05-29T15:58:30;14.70;98.50